Time;durP1;ratioP1;P1;durP2;ratioP2;P2;SDS_P1;SDS_P2;PMS_P1;PMS_P2;Temp;Humidity;BMP_temperature;BMP_pressure;BME280_temperature;BME280_humidity;BME280_pressure;Samples;Min_cycle;Max_cycle;Signal;HPM_P1;HPM_P2
2021/11/16 00:00:42;;;;;;;149.32;51.03;;;4.20;99.90;;;;;;4990726;28;20076;-73
2021/11/16 00:03:10;;;;;;;157.57;49.35;;;4.10;99.90;;;;;;5023567;28;20107;-73
2021/11/16 00:05:38;;;;;;;167.13;53.72;;;4.10;99.90;;;;;;5005795;28;20140;-73
2021/11/16 00:08:06;;;;;;;169.85;54.65;;;4.10;99.90;;;;;;5023809;28;20120;-73
2021/11/16 00:10:34;;;;;;;171.73;53.92;;;4.10;99.90;;;;;;5023818;28;20042;-71
2021/11/16 00:13:04;;;;;;;161.68;52.80;;;4.00;99.90;;;;;;5005634;28;20413;-73
2021/11/16 00:15:30;;;;;;;179.18;53.30;;;4.00;99.90;;;;;;5005828;28;20086;-73
2021/11/16 00:17:57;;;;;;;160.43;51.95;;;4.00;99.90;;;;;;5006975;28;20499;-73
2021/11/16 00:20:24;;;;;;;171.43;53.05;;;4.10;99.90;;;;;;4998334;28;20044;-73
2021/11/16 00:22:51;;;;;;;170.48;54.30;;;4.20;99.90;;;;;;5004243;28;20046;-72
2021/11/16 00:25:33;;;;;;;167.25;51.92;;;4.10;99.90;;;;;;4986818;28;20041;-72
2021/11/16 00:28:01;;;;;;;173.25;52.10;;;4.10;99.90;;;;;;5043264;28;20114;-72
2021/11/16 00:30:28;;;;;;;173.27;54.88;;;4.10;99.90;;;;;;5015738;28;20571;-73
2021/11/16 00:32:57;;;;;;;164.75;50.45;;;4.20;99.90;;;;;;5006642;28;20518;-72
2021/11/16 00:35:24;;;;;;;172.48;52.70;;;4.20;99.90;;;;;;4989023;28;20623;-72
2021/11/16 00:37:51;;;;;;;170.00;51.95;;;4.10;99.90;;;;;;4988500;28;20522;-71
2021/11/16 00:40:19;;;;;;;167.30;51.13;;;4.00;99.90;;;;;;5004566;28;20056;-72
2021/11/16 00:42:49;;;;;;;168.10;49.60;;;3.90;99.90;;;;;;5006486;28;20080;-71
2021/11/16 00:45:17;;;;;;;160.07;49.80;;;4.00;99.90;;;;;;5003137;28;20045;-72
2021/11/16 00:47:44;;;;;;;155.65;48.60;;;3.90;99.90;;;;;;5024699;28;20053;-73
2021/11/16 00:50:15;;;;;;;152.90;45.55;;;3.90;99.90;;;;;;5005322;28;20033;-72
2021/11/16 00:52:44;;;;;;;148.38;45.13;;;3.80;99.90;;;;;;4989274;28;20057;-71
2021/11/16 00:55:11;;;;;;;144.18;43.47;;;3.80;99.90;;;;;;5005943;28;20046;-72
2021/11/16 00:57:38;;;;;;;148.85;43.63;;;3.80;99.90;;;;;;5034935;28;20044;-72
2021/11/16 01:00:09;;;;;;;141.52;43.80;;;3.80;99.90;;;;;;5047298;28;20044;-72
2021/11/16 01:02:36;;;;;;;138.82;42.88;;;3.80;99.90;;;;;;5029423;28;20135;-73
2021/11/16 01:05:04;;;;;;;157.23;45.92;;;3.80;99.90;;;;;;5026416;28;20066;-72
2021/11/16 01:07:31;;;;;;;166.15;48.05;;;3.70;99.90;;;;;;5009313;28;20170;-71
2021/11/16 01:09:59;;;;;;;147.50;45.00;;;3.70;99.90;;;;;;4993594;28;20048;-73
2021/11/16 01:12:27;;;;;;;154.93;46.33;;;3.70;99.90;;;;;;5008881;28;20087;-73
2021/11/16 01:14:57;;;;;;;157.32;47.15;;;3.70;99.90;;;;;;5026146;28;20124;-72
2021/11/16 01:17:24;;;;;;;160.40;48.28;;;3.70;99.90;;;;;;5009078;28;20045;-72
2021/11/16 01:19:52;;;;;;;167.40;48.92;;;3.70;99.90;;;;;;5009799;28;20042;-72
2021/11/16 01:22:19;;;;;;;161.70;47.88;;;3.70;99.90;;;;;;5026623;28;20499;-71
2021/11/16 01:24:46;;;;;;;165.50;47.80;;;3.70;99.90;;;;;;5009874;28;20046;-72
2021/11/16 01:27:18;;;;;;;157.68;47.33;;;3.70;99.90;;;;;;5008332;28;20061;-72
2021/11/16 01:29:48;;;;;;;145.25;45.42;;;3.80;99.90;;;;;;5025739;28;20053;-73
2021/11/16 01:32:38;;;;;;;149.75;45.92;;;3.80;99.90;;;;;;5008396;28;20137;-72
2021/11/16 01:35:06;;;;;;;161.20;48.28;;;3.80;99.90;;;;;;5024984;28;20616;-73
2021/11/16 01:37:34;;;;;;;160.40;48.03;;;3.80;99.90;;;;;;5009233;28;20373;-72
2021/11/16 01:40:05;;;;;;;163.23;45.78;;;3.80;99.90;;;;;;5007901;28;20065;-72
2021/11/16 01:42:31;;;;;;;165.02;45.75;;;3.80;99.90;;;;;;5007866;28;20603;-73
2021/11/16 01:44:58;;;;;;;149.95;46.72;;;3.80;99.90;;;;;;5026349;28;20546;-73
2021/11/16 01:47:26;;;;;;;161.02;45.85;;;3.70;99.90;;;;;;5007767;28;20064;-71
2021/11/16 01:49:53;;;;;;;174.82;46.35;;;3.80;99.90;;;;;;5008140;28;20524;-72
2021/11/16 01:52:20;;;;;;;178.93;50.83;;;3.80;99.90;;;;;;5008285;28;20341;-72
2021/11/16 01:54:47;;;;;;;180.38;50.17;;;3.70;99.90;;;;;;5008916;28;20675;-72
2021/11/16 01:57:15;;;;;;;196.20;55.80;;;3.70;99.90;;;;;;5014693;28;20045;-73
2021/11/16 01:59:43;;;;;;;185.00;53.97;;;3.70;99.90;;;;;;5028364;28;20049;-72
2021/11/16 02:02:10;;;;;;;173.32;48.63;;;3.70;99.90;;;;;;5026821;28;20052;-71
2021/11/16 02:04:37;;;;;;;176.70;48.53;;;3.60;99.90;;;;;;4989449;28;20526;-72
2021/11/16 02:07:06;;;;;;;186.27;53.67;;;3.60;99.90;;;;;;5007680;28;20679;-72
2021/11/16 02:09:35;;;;;;;190.15;53.33;;;3.60;99.90;;;;;;5004739;28;20057;-73
2021/11/16 02:12:02;;;;;;;200.40;55.03;;;3.60;99.90;;;;;;5021109;28;20140;-72
2021/11/16 02:14:29;;;;;;;187.57;52.05;;;3.60;99.90;;;;;;5006791;28;20050;-72
2021/11/16 02:16:56;;;;;;;203.00;52.95;;;3.60;99.90;;;;;;5007485;28;20046;-72
2021/11/16 02:19:23;;;;;;;178.80;50.38;;;3.70;99.90;;;;;;5025724;28;20126;-73
2021/11/16 02:21:50;;;;;;;198.65;54.80;;;3.60;99.90;;;;;;4991643;28;20510;-73
2021/11/16 02:24:19;;;;;;;191.93;52.70;;;3.70;99.90;;;;;;5005557;28;20042;-72
2021/11/16 02:26:46;;;;;;;172.25;50.17;;;3.80;99.90;;;;;;5007263;28;20046;-73
2021/11/16 02:29:12;;;;;;;184.63;50.88;;;3.80;99.90;;;;;;5007817;28;20062;-72
2021/11/16 02:31:40;;;;;;;176.52;49.95;;;3.80;99.90;;;;;;5023997;28;20118;-72
2021/11/16 02:34:07;;;;;;;179.73;52.17;;;3.70;99.90;;;;;;4990590;28;20061;-72
2021/11/16 02:36:35;;;;;;;198.20;54.03;;;3.80;99.90;;;;;;5007387;28;20052;-72
2021/11/16 02:39:06;;;;;;;195.90;53.65;;;3.90;99.90;;;;;;4991379;28;20121;-72
2021/11/16 02:41:34;;;;;;;193.30;50.75;;;4.00;99.90;;;;;;4989299;28;20128;-73
2021/11/16 02:44:04;;;;;;;189.43;52.20;;;3.90;99.90;;;;;;5024731;28;20045;-72
2021/11/16 02:46:32;;;;;;;186.40;50.00;;;3.90;99.90;;;;;;5024932;28;20080;-71
2021/11/16 02:48:59;;;;;;;187.52;54.25;;;3.80;99.90;;;;;;4990876;28;20045;-72
2021/11/16 02:51:30;;;;;;;188.63;50.70;;;3.90;99.90;;;;;;5025463;28;20049;-72
2021/11/16 02:53:57;;;;;;;208.55;53.10;;;3.90;99.90;;;;;;5025572;28;20061;-72
2021/11/16 02:56:25;;;;;;;192.93;48.92;;;4.00;99.90;;;;;;5024643;28;20049;-72
2021/11/16 02:58:52;;;;;;;212.80;56.00;;;4.00;99.90;;;;;;5006760;28;20492;-72
2021/11/16 03:01:20;;;;;;;180.82;51.10;;;4.00;99.90;;;;;;5026261;28;20064;-72
2021/11/16 03:03:47;;;;;;;184.35;46.70;;;4.00;99.90;;;;;;5013145;28;20050;-72
2021/11/16 03:06:14;;;;;;;202.05;53.13;;;3.90;99.90;;;;;;5006980;28;20049;-72
2021/11/16 03:08:42;;;;;;;203.18;52.47;;;3.80;99.90;;;;;;5007195;28;20057;-72
2021/11/16 03:11:11;;;;;;;207.57;52.33;;;3.80;99.90;;;;;;4990511;28;20682;-72
2021/11/16 03:13:40;;;;;;;210.32;49.33;;;3.70;99.90;;;;;;4989224;28;20049;-72
2021/11/16 03:16:11;;;;;;;190.82;53.45;;;3.70;99.90;;;;;;5024169;28;20403;-72
2021/11/16 03:18:39;;;;;;;213.55;51.95;;;3.80;99.90;;;;;;4989955;28;20150;-72
2021/11/16 03:21:07;;;;;;;205.20;52.88;;;3.80;99.90;;;;;;5023502;28;20118;-72
2021/11/16 03:23:34;;;;;;;211.25;54.97;;;3.90;99.90;;;;;;5024623;28;20033;-72
2021/11/16 03:26:03;;;;;;;193.75;51.35;;;3.80;99.90;;;;;;5006509;28;20522;-71
2021/11/16 03:28:34;;;;;;;205.35;52.38;;;3.90;99.90;;;;;;5024835;28;20436;-73
2021/11/16 03:31:10;;;;;;;224.73;54.67;;;3.80;99.90;;;;;;5005967;28;20056;-72
2021/11/16 03:33:39;;;;;;;215.32;55.83;;;3.80;99.90;;;;;;5005246;28;20107;-72
2021/11/16 03:36:06;;;;;;;222.50;54.45;;;3.70;99.90;;;;;;5023315;28;20107;-72
2021/11/16 03:38:34;;;;;;;214.65;51.92;;;3.80;99.90;;;;;;5006158;28;20543;-72
2021/11/16 03:41:01;;;;;;;223.40;55.72;;;3.70;99.90;;;;;;4989166;28;20052;-72
2021/11/16 03:43:28;;;;;;;226.50;55.28;;;3.70;99.90;;;;;;4990317;28;20144;-72
2021/11/16 03:45:58;;;;;;;234.52;55.00;;;3.70;99.90;;;;;;4988722;28;20046;-72
2021/11/16 03:48:26;;;;;;;237.65;56.15;;;3.80;99.90;;;;;;5022963;28;20132;-72
2021/11/16 03:50:54;;;;;;;250.07;57.78;;;3.80;99.90;;;;;;5006708;28;20049;-72
2021/11/16 03:53:21;;;;;;;239.18;58.50;;;3.90;99.90;;;;;;5006614;28;20412;-72
2021/11/16 03:55:48;;;;;;;254.38;58.78;;;3.90;99.90;;;;;;5008839;28;20130;-71
2021/11/16 03:58:19;;;;;;;244.68;57.30;;;3.80;99.90;;;;;;4990132;28;20127;-73
2021/11/16 04:00:54;;;;;;;245.43;55.15;;;3.70;99.90;;;;;;5024565;28;20042;-72
2021/11/16 04:03:23;;;;;;;;;;;3.70;99.90;;;;;;5006984;28;20110;-73
2021/11/16 04:05:52;;;;;;;207.88;49.13;;;3.70;99.90;;;;;;5024713;28;19928;-72
2021/11/16 04:08:20;;;;;;;245.57;55.30;;;3.70;99.90;;;;;;4989550;28;20042;-73
2021/11/16 04:10:49;;;;;;;221.82;53.10;;;3.70;99.90;;;;;;5024087;28;20061;-72
2021/11/16 04:13:17;;;;;;;240.73;53.22;;;3.70;99.90;;;;;;5023490;28;20062;-73
2021/11/16 04:15:47;;;;;;;202.88;46.65;;;3.70;99.90;;;;;;5002263;28;20064;-72
2021/11/16 04:18:15;;;;;;;227.57;54.78;;;3.70;99.90;;;;;;5003259;28;20046;-73
2021/11/16 04:20:43;;;;;;;228.85;53.70;;;3.70;99.90;;;;;;4970104;28;20054;-73
2021/11/16 04:23:12;;;;;;;238.80;57.10;;;3.70;99.90;;;;;;4953888;28;20564;-72
2021/11/16 04:25:41;;;;;;;243.18;55.28;;;3.70;99.90;;;;;;5014982;28;20137;-72
2021/11/16 04:28:10;;;;;;;241.43;57.20;;;3.70;99.90;;;;;;5024497;28;20148;-73
2021/11/16 04:30:37;;;;;;;198.13;48.03;;;3.70;99.90;;;;;;5005410;28;20050;-73
2021/11/16 04:33:06;;;;;;;231.30;51.67;;;3.70;99.90;;;;;;5020803;28;20056;-73
2021/11/16 04:35:33;;;;;;;196.52;50.65;;;3.60;99.90;;;;;;5009806;28;20085;-72
2021/11/16 04:38:03;;;;;;;184.00;49.25;;;3.60;99.90;;;;;;5026900;28;20049;-72
2021/11/16 04:40:37;;;;;;;205.27;51.60;;;3.60;99.90;;;;;;5008420;28;20076;-75
2021/11/16 04:43:08;;;;;;;182.48;45.70;;;3.60;99.90;;;;;;5027950;28;20121;-71
2021/11/16 04:45:37;;;;;;;193.30;48.00;;;3.60;99.90;;;;;;5024469;28;20500;-72
2021/11/16 04:48:16;;;;;;;217.50;49.05;;;3.50;99.90;;;;;;5028416;28;20061;-73
2021/11/16 04:59:33;;;;;;;219.52;55.38;;;3.60;99.90;;;;;;5026705;28;20056;-71
2021/11/16 05:04:03;;;;;;;214.13;53.78;;;3.70;99.90;;;;;;5031528;28;20049;-73
2021/11/16 05:06:30;;;;;;;183.00;48.58;;;3.80;99.90;;;;;;5025866;28;20095;-73
2021/11/16 05:08:57;;;;;;;190.00;47.40;;;3.80;99.90;;;;;;4993190;28;20519;-73
2021/11/16 05:11:25;;;;;;;178.88;47.55;;;3.80;99.90;;;;;;5026343;28;20068;-73
2021/11/16 05:13:55;;;;;;;192.13;49.25;;;3.80;99.90;;;;;;5009286;28;20060;-73
2021/11/16 05:16:24;;;;;;;172.02;51.60;;;3.80;99.90;;;;;;5023908;28;20048;-72
2021/11/16 05:18:51;;;;;;;180.57;48.85;;;3.70;99.90;;;;;;5025456;28;20164;-73
2021/11/16 05:21:19;;;;;;;171.48;48.75;;;3.80;99.90;;;;;;5021329;28;20286;-73
2021/11/16 05:23:52;;;;;;;201.48;49.75;;;3.80;99.90;;;;;;5008558;28;20048;-73
2021/11/16 05:26:21;;;;;;;189.05;49.05;;;3.70;99.90;;;;;;5009104;28;20045;-73
2021/11/16 05:28:48;;;;;;;186.57;50.53;;;3.70;99.90;;;;;;5025541;28;20053;-73
2021/11/16 05:31:15;;;;;;;181.50;49.05;;;3.70;99.90;;;;;;4998079;28;20424;-72
2021/11/16 05:33:44;;;;;;;165.18;47.13;;;3.70;99.90;;;;;;5000142;28;20064;-73
2021/11/16 05:36:11;;;;;;;199.05;47.33;;;3.60;99.90;;;;;;4987452;28;20603;-73
2021/11/16 05:38:39;;;;;;;226.27;52.95;;;3.70;99.90;;;;;;4986766;28;20041;-73
2021/11/16 05:41:07;;;;;;;212.30;53.08;;;3.80;99.90;;;;;;5023969;28;20056;-72
2021/11/16 05:43:34;;;;;;;245.60;55.50;;;3.70;99.90;;;;;;5006911;28;20046;-73
2021/11/16 05:46:02;;;;;;;218.48;52.25;;;3.70;99.90;;;;;;4994572;28;20116;-73
2021/11/16 05:48:37;;;;;;;215.48;52.05;;;3.70;99.90;;;;;;5024395;28;20420;-72
2021/11/16 05:51:05;;;;;;;223.45;52.75;;;3.70;99.90;;;;;;5024272;28;20080;-73
2021/11/16 05:53:33;;;;;;;215.60;52.55;;;3.70;99.90;;;;;;4992239;28;20578;-73
2021/11/16 05:56:00;;;;;;;208.38;50.80;;;3.80;99.90;;;;;;4975295;28;20057;-72
2021/11/16 05:58:27;;;;;;;201.98;50.08;;;3.70;99.90;;;;;;5007071;28;20045;-73
2021/11/16 06:00:54;;;;;;;207.38;52.65;;;3.70;99.90;;;;;;5024681;28;20076;-73
2021/11/16 06:03:21;;;;;;;179.48;45.60;;;3.60;99.90;;;;;;5025701;28;20092;-72
2021/11/16 06:05:48;;;;;;;182.80;48.22;;;3.60;99.90;;;;;;5006546;28;20088;-72
2021/11/16 06:08:23;;;;;;;206.65;49.40;;;3.60;99.90;;;;;;5025381;28;20054;-73
2021/11/16 06:10:50;;;;;;;194.98;48.63;;;3.60;99.90;;;;;;5025024;28;20051;-72
2021/11/16 06:13:17;;;;;;;173.63;46.38;;;3.60;99.90;;;;;;4989254;28;20052;-73
2021/11/16 06:15:44;;;;;;;178.15;46.33;;;3.60;99.90;;;;;;5008113;28;20046;-73
2021/11/16 06:18:12;;;;;;;163.48;45.92;;;3.50;99.90;;;;;;5010287;28;20411;-72
2021/11/16 06:20:42;;;;;;;167.48;44.35;;;3.60;99.90;;;;;;4989332;28;20049;-73
2021/11/16 06:23:10;;;;;;;159.32;44.58;;;3.50;99.90;;;;;;5025737;28;20064;-73
2021/11/16 06:25:39;;;;;;;168.02;43.40;;;3.50;99.90;;;;;;5024805;28;20053;-72
2021/11/16 06:28:06;;;;;;;168.80;46.00;;;3.50;99.90;;;;;;5007085;28;20061;-73
2021/11/16 06:30:34;;;;;;;163.85;43.38;;;3.50;99.90;;;;;;5003120;28;20461;-73
2021/11/16 06:33:02;;;;;;;162.73;42.53;;;3.60;99.90;;;;;;5017591;28;20225;-72
2021/11/16 06:35:30;;;;;;;171.73;44.17;;;3.50;99.90;;;;;;5023843;28;20118;-72
2021/11/16 06:37:57;;;;;;;167.35;47.03;;;3.50;99.90;;;;;;5006369;28;20159;-72
2021/11/16 06:40:24;;;;;;;203.15;51.28;;;3.60;99.90;;;;;;5023150;28;20064;-73
2021/11/16 06:42:51;;;;;;;208.98;50.67;;;3.60;99.90;;;;;;5024702;28;20075;-73
2021/11/16 06:45:18;;;;;;;177.35;46.42;;;3.60;99.90;;;;;;5026597;28;20045;-72
2021/11/16 06:47:45;;;;;;;183.15;46.03;;;3.50;99.90;;;;;;5024006;28;20510;-73
2021/11/16 06:50:14;;;;;;;176.60;44.65;;;3.50;99.90;;;;;;5006235;28;20061;-72
2021/11/16 06:52:41;;;;;;;182.10;45.72;;;3.40;99.90;;;;;;4974136;28;20053;-73
2021/11/16 06:55:09;;;;;;;187.95;47.03;;;3.40;99.90;;;;;;5005789;28;20271;-71
2021/11/16 06:57:38;;;;;;;208.70;47.30;;;3.40;99.90;;;;;;5031421;28;20128;-72
2021/11/16 07:00:07;;;;;;;177.57;47.53;;;3.50;99.90;;;;;;5025258;28;20428;-73
2021/11/16 07:02:34;;;;;;;207.52;50.72;;;3.50;99.90;;;;;;5005390;28;20063;-72
2021/11/16 07:05:11;;;;;;;200.38;50.92;;;3.50;99.90;;;;;;5023412;28;20052;-73
2021/11/16 07:07:45;;;;;;;230.50;53.22;;;3.60;99.90;;;;;;5019987;28;20068;-72
2021/11/16 07:10:15;;;;;;;187.15;49.97;;;3.60;99.90;;;;;;4990631;28;20083;-73
2021/11/16 07:12:43;;;;;;;182.00;47.65;;;3.60;99.90;;;;;;5007290;28;20057;-73
2021/11/16 07:15:11;;;;;;;202.20;52.80;;;3.70;99.90;;;;;;5023142;28;20041;-72
2021/11/16 07:17:38;;;;;;;194.23;50.80;;;3.80;99.90;;;;;;5005869;28;20072;-73
2021/11/16 07:20:06;;;;;;;198.48;52.40;;;3.80;99.90;;;;;;4989914;28;20045;-73
2021/11/16 07:22:35;;;;;;;179.93;50.85;;;3.80;99.90;;;;;;5005845;28;20050;-73
2021/11/16 07:25:13;;;;;;;228.65;53.05;;;3.90;99.90;;;;;;5006106;28;20045;-74
2021/11/16 07:27:42;;;;;;;184.98;48.78;;;3.80;99.90;;;;;;5005985;28;20103;-74
2021/11/16 07:30:14;;;;;;;162.82;45.08;;;3.90;99.90;;;;;;5023863;28;20587;-74
2021/11/16 07:32:53;;;;;;;169.43;50.65;;;3.80;99.90;;;;;;4990822;28;20112;-74
2021/11/16 07:35:39;;;;;;;180.73;49.53;;;3.80;99.90;;;;;;5005326;28;20048;-74
2021/11/16 07:38:11;;;;;;;177.13;51.53;;;3.70;99.90;;;;;;5024250;28;20658;-73
2021/11/16 07:40:43;;;;;;;175.95;52.03;;;3.80;99.90;;;;;;5022319;28;20107;-73
2021/11/16 07:43:13;;;;;;;168.20;50.50;;;3.80;99.90;;;;;;5003291;28;20121;-74
2021/11/16 07:45:48;;;;;;;177.05;51.25;;;3.90;99.90;;;;;;5003146;28;20110;-74
2021/11/16 07:48:21;;;;;;;169.55;55.95;;;4.00;99.90;;;;;;5021231;28;20072;-74
2021/11/16 07:50:58;;;;;;;154.50;45.95;;;4.00;99.90;;;;;;4989736;28;20129;-73
2021/11/16 07:53:29;;;;;;;168.30;49.20;;;4.10;99.90;;;;;;5024292;28;20053;-74
2021/11/16 07:56:04;;;;;;;170.70;51.60;;;4.00;99.90;;;;;;5006580;28;20055;-74
2021/11/16 07:58:35;;;;;;;;;;;4.00;99.90;;;;;;5042216;28;20048;-74
2021/11/16 08:01:22;;;;;;;155.18;43.58;;;4.00;99.90;;;;;;5030184;28;20000;-74
2021/11/16 08:04:05;;;;;;;148.63;43.15;;;4.00;99.90;;;;;;4995637;28;20267;-74
2021/11/16 08:06:40;;;;;;;134.32;42.42;;;3.90;99.90;;;;;;5005963;28;20049;-74
2021/11/16 08:09:30;;;;;;;;;;;3.90;99.90;;;;;;5010023;28;20080;-73
2021/11/16 08:12:06;;;;;;;141.80;39.60;;;3.90;99.90;;;;;;5009972;28;19921;-75
2021/11/16 08:14:35;;;;;;;140.50;40.28;;;3.90;99.90;;;;;;5010598;28;20049;-73
2021/11/16 08:17:10;;;;;;;136.82;40.35;;;4.10;99.90;;;;;;5010443;28;20053;-73
2021/11/16 08:19:39;;;;;;;152.90;43.67;;;4.20;99.90;;;;;;5027474;28;20445;-74
2021/11/16 08:22:14;;;;;;;152.73;46.05;;;4.20;99.90;;;;;;5024140;28;20158;-75
2021/11/16 08:24:45;;;;;;;159.50;48.42;;;4.30;99.90;;;;;;5028601;28;20111;-74
2021/11/16 08:27:18;;;;;;;128.57;41.30;;;4.30;99.90;;;;;;5009754;28;20042;-74
2021/11/16 08:29:48;;;;;;;128.68;40.78;;;4.40;99.90;;;;;;4993445;28;20057;-73
2021/11/16 08:32:33;;;;;;;125.70;37.17;;;4.30;99.90;;;;;;5008824;28;20057;-74
2021/11/16 08:35:03;;;;;;;146.98;47.95;;;4.30;99.90;;;;;;5026569;28;20140;-73
2021/11/16 08:37:36;;;;;;;138.30;42.85;;;4.30;99.90;;;;;;5027407;28;20054;-73
2021/11/16 08:40:16;;;;;;;115.57;37.97;;;4.20;99.90;;;;;;5027090;28;20087;-72
2021/11/16 08:42:58;;;;;;;110.78;35.85;;;4.20;99.90;;;;;;5028169;28;20399;-74
2021/11/16 08:45:32;;;;;;;110.93;36.55;;;4.10;99.90;;;;;;4992573;28;20067;-75
2021/11/16 08:48:09;;;;;;;112.22;36.28;;;4.20;99.90;;;;;;5027990;28;20045;-73
2021/11/16 08:50:59;;;;;;;95.15;33.17;;;4.10;99.90;;;;;;5008563;28;20136;-75
2021/11/16 08:53:32;;;;;;;102.25;35.10;;;4.10;99.90;;;;;;5027851;28;20472;-73
2021/11/16 08:56:04;;;;;;;89.32;29.15;;;4.10;99.90;;;;;;5009686;28;20077;-73
2021/11/16 08:58:32;;;;;;;76.10;26.48;;;4.00;99.90;;;;;;5026615;28;20057;-73
2021/11/16 09:01:04;;;;;;;84.68;27.95;;;4.00;99.90;;;;;;5035020;28;20045;-73
2021/11/16 09:03:34;;;;;;;82.00;28.40;;;4.00;99.90;;;;;;5009787;28;20139;-74
2021/11/16 09:06:03;;;;;;;77.55;29.83;;;4.00;99.90;;;;;;5024765;28;20279;-74
2021/11/16 09:08:34;;;;;;;83.82;29.52;;;4.00;99.90;;;;;;5027513;28;20045;-73
2021/11/16 09:11:16;;;;;;;90.05;28.90;;;4.00;99.90;;;;;;5009342;28;20084;-73
2021/11/16 09:13:45;;;;;;;84.63;30.45;;;4.10;99.90;;;;;;5026928;28;20132;-74
2021/11/16 09:16:15;;;;;;;79.40;27.92;;;4.20;99.90;;;;;;4992789;28;20050;-73
2021/11/16 09:18:45;;;;;;;81.45;32.08;;;4.10;99.90;;;;;;5008698;28;20060;-72
2021/11/16 09:21:21;;;;;;;69.70;27.42;;;4.10;99.90;;;;;;5008389;28;20373;-73
2021/11/16 09:23:50;;;;;;;71.88;28.75;;;4.10;99.90;;;;;;5009357;28;20061;-72
2021/11/16 09:28:58;;;;;;;72.35;24.90;;;4.20;99.90;;;;;;5009431;28;20053;-73
2021/11/16 09:31:30;;;;;;;74.18;28.30;;;4.20;99.90;;;;;;4991965;28;20053;-74
2021/11/16 09:34:19;;;;;;;72.95;27.17;;;4.20;99.90;;;;;;5008938;28;20057;-73
2021/11/16 09:37:01;;;;;;;72.18;26.30;;;4.20;99.90;;;;;;5006743;28;20079;-74
2021/11/16 09:39:31;;;;;;;62.80;23.80;;;4.20;99.90;;;;;;4992759;28;20100;-73
2021/11/16 09:42:06;;;;;;;74.70;27.90;;;4.20;99.90;;;;;;5024108;28;20049;-72
2021/11/16 09:44:43;;;;;;;73.15;25.90;;;4.30;99.90;;;;;;4992353;28;20137;-72
2021/11/16 09:47:15;;;;;;;73.78;28.35;;;4.20;99.90;;;;;;5008506;28;20662;-72
2021/11/16 09:49:51;;;;;;;74.97;29.90;;;4.40;99.90;;;;;;5024413;28;20054;-72
2021/11/16 09:52:21;;;;;;;81.63;29.10;;;4.40;99.90;;;;;;5008360;28;20206;-74
2021/11/16 09:54:57;;;;;;;78.13;29.55;;;4.30;99.90;;;;;;5008834;28;20079;-72
2021/11/16 09:57:31;;;;;;;71.85;27.85;;;4.00;99.90;;;;;;4999355;28;20071;-73
2021/11/16 10:00:23;;;;;;;82.43;30.70;;;4.10;99.90;;;;;;5028812;28;20450;-73
2021/11/16 10:02:52;;;;;;;96.93;31.45;;;4.20;99.90;;;;;;5017806;28;20302;-73
2021/11/16 10:05:26;;;;;;;79.82;29.85;;;4.40;99.90;;;;;;5024578;28;20072;-72
2021/11/16 10:07:56;;;;;;;75.20;27.27;;;4.40;99.90;;;;;;5007958;28;20045;-72
2021/11/16 10:10:25;;;;;;;74.15;28.30;;;4.40;99.90;;;;;;5026191;28;20058;-73
2021/11/16 10:12:58;;;;;;;81.18;32.17;;;4.40;99.90;;;;;;4991977;28;20063;-72
2021/11/16 10:15:29;;;;;;;80.28;32.65;;;4.50;99.90;;;;;;5007603;28;20058;-74
2021/11/16 10:17:56;;;;;;;81.25;30.45;;;4.50;99.90;;;;;;5007107;28;20056;-72
2021/11/16 10:20:28;;;;;;;68.25;26.30;;;4.50;99.90;;;;;;5008025;28;20057;-72
2021/11/16 10:23:37;;;;;;;54.95;21.75;;;4.30;99.90;;;;;;5037977;28;20057;-71
2021/11/16 10:26:06;;;;;;;60.80;24.25;;;4.20;99.90;;;;;;5007477;28;20057;-73
2021/11/16 10:28:39;;;;;;;52.58;21.13;;;4.10;99.90;;;;;;5008155;28;20148;-73
2021/11/16 10:31:06;;;;;;;50.47;21.30;;;4.10;99.90;;;;;;5024600;28;20073;-72
2021/11/16 10:33:40;;;;;;;58.05;22.98;;;4.20;99.90;;;;;;4989895;28;20068;-72
2021/11/16 10:36:11;;;;;;;51.50;22.60;;;4.10;99.90;;;;;;5006151;28;20077;-72
2021/11/16 10:38:44;;;;;;;54.10;21.50;;;4.20;99.90;;;;;;5008016;28;20050;-74
2021/11/16 10:41:42;;;;;;;54.13;22.13;;;4.20;99.90;;;;;;5006311;28;20053;-73
2021/11/16 10:44:11;;;;;;;55.47;22.70;;;4.20;99.90;;;;;;4991228;28;20427;-71
2021/11/16 10:46:43;;;;;;;68.47;25.85;;;4.30;99.90;;;;;;5006894;28;20057;-73
2021/11/16 10:49:14;;;;;;;62.83;25.15;;;4.40;99.90;;;;;;4974793;28;20181;-73
2021/11/16 10:51:47;;;;;;;48.22;21.00;;;4.40;99.90;;;;;;5007528;28;20054;-72
2021/11/16 10:54:17;;;;;;;62.35;24.13;;;4.30;99.90;;;;;;5025300;28;20210;-72
2021/11/16 10:56:45;;;;;;;56.55;22.00;;;4.30;99.90;;;;;;5007235;28;20080;-73
2021/11/16 10:59:19;;;;;;;61.13;23.73;;;4.40;99.90;;;;;;5026140;28;20057;-71
2021/11/16 11:01:51;;;;;;;57.28;23.42;;;4.40;99.90;;;;;;5010591;28;20055;-73
2021/11/16 11:04:22;;;;;;;61.42;23.67;;;4.40;99.90;;;;;;5009516;28;20081;-75
2021/11/16 11:06:50;;;;;;;67.80;26.00;;;4.40;99.90;;;;;;5023479;28;20037;-74
2021/11/16 11:09:23;;;;;;;59.75;25.40;;;4.50;99.90;;;;;;5005565;28;20046;-74
2021/11/16 11:11:54;;;;;;;69.60;26.92;;;4.50;99.90;;;;;;4990012;28;20053;-74
2021/11/16 11:14:34;;;;;;;62.10;27.05;;;4.50;99.90;;;;;;5003686;28;20063;-73
2021/11/16 11:17:08;;;;;;;58.92;24.58;;;4.50;99.90;;;;;;5005628;28;20053;-74
2021/11/16 11:19:42;;;;;;;63.83;25.65;;;4.50;99.90;;;;;;5003574;28;20050;-74
2021/11/16 11:22:23;;;;;;;52.08;22.80;;;4.50;99.90;;;;;;5039270;28;20046;-74
2021/11/16 11:27:42;;;;;;;57.50;23.92;;;4.40;99.90;;;;;;5007026;28;20133;-73
2021/11/16 11:30:14;;;;;;;61.45;23.25;;;4.40;99.90;;;;;;5005876;28;20077;-74
2021/11/16 11:32:44;;;;;;;56.00;24.05;;;4.40;99.90;;;;;;5006031;28;20083;-74
2021/11/16 11:35:15;;;;;;;63.22;24.15;;;4.30;99.90;;;;;;5023002;28;20064;-74
2021/11/16 11:37:48;;;;;;;48.42;20.52;;;4.20;99.90;;;;;;5022555;28;20115;-74
2021/11/16 11:40:18;;;;;;;57.83;22.45;;;4.20;99.90;;;;;;5005539;28;20144;-74
2021/11/16 11:42:57;;;;;;;55.42;22.70;;;4.30;99.90;;;;;;5017003;28;20038;-74
2021/11/16 11:45:31;;;;;;;65.00;30.83;;;4.40;99.90;;;;;;5022773;28;20034;-74
2021/11/16 11:47:58;;;;;;;55.95;22.30;;;4.40;99.90;;;;;;4990285;28;20045;-74
2021/11/16 11:50:25;;;;;;;53.90;23.95;;;4.50;99.90;;;;;;4989142;28;20060;-74
2021/11/16 11:52:52;;;;;;;50.05;23.52;;;4.50;99.90;;;;;;5024969;28;20053;-74
2021/11/16 11:55:20;;;;;;;55.13;21.60;;;4.70;99.90;;;;;;5005017;28;20068;-74
2021/11/16 11:57:48;;;;;;;49.90;20.75;;;4.80;99.90;;;;;;5001542;28;20053;-74
2021/11/16 12:00:15;;;;;;;49.50;19.98;;;4.90;99.90;;;;;;5022773;28;20103;-74
2021/11/16 12:02:45;;;;;;;48.33;20.08;;;4.90;99.90;;;;;;5023172;28;20053;-74
2021/11/16 12:05:12;;;;;;;51.00;22.55;;;4.90;99.90;;;;;;5023075;28;20041;-74
2021/11/16 12:07:39;;;;;;;50.15;22.05;;;4.80;99.90;;;;;;5006974;28;20052;-74
2021/11/16 12:10:07;;;;;;;51.35;21.55;;;4.80;99.90;;;;;;5007135;28;20056;-74
2021/11/16 12:12:38;;;;;;;42.35;18.58;;;4.70;99.90;;;;;;5008954;28;20160;-74
2021/11/16 12:15:09;;;;;;;46.63;18.77;;;4.60;99.90;;;;;;5006072;28;20046;-74
2021/11/16 12:17:57;;;;;;;47.63;20.65;;;4.60;99.90;;;;;;5009995;28;20140;-74
2021/11/16 12:20:54;;;;;;;45.90;20.65;;;4.60;99.90;;;;;;5009507;28;20120;-74
2021/11/16 12:23:55;;;;;;;48.15;20.05;;;4.80;99.90;;;;;;5007052;28;20045;-74
2021/11/16 12:26:22;;;;;;;48.75;21.80;;;4.80;99.90;;;;;;5008463;28;20129;-74
2021/11/16 12:28:49;;;;;;;51.47;20.70;;;4.80;99.90;;;;;;5002563;28;20542;-74
2021/11/16 12:31:26;;;;;;;48.17;20.42;;;4.70;99.90;;;;;;4995380;28;20455;-74
2021/11/16 12:33:55;;;;;;;51.92;19.73;;;4.70;99.90;;;;;;5006423;28;20049;-74
2021/11/16 12:36:31;;;;;;;55.22;22.65;;;4.70;99.90;;;;;;5020649;28;20487;-74
2021/11/16 12:39:12;;;;;;;47.15;22.48;;;4.70;99.90;;;;;;5009354;28;20041;-73
2021/11/16 12:41:51;;;;;;;47.03;20.67;;;4.80;99.90;;;;;;4986564;28;20073;-74
2021/11/16 12:44:41;;;;;;;46.92;21.65;;;4.70;99.90;;;;;;5020854;28;20128;-74
2021/11/16 12:47:10;;;;;;;46.50;22.00;;;4.70;99.90;;;;;;4986661;28;20590;-74
2021/11/16 12:49:40;;;;;;;51.20;22.23;;;4.60;99.90;;;;;;5001598;28;20065;-74
2021/11/16 12:52:19;;;;;;;54.92;23.48;;;4.60;99.90;;;;;;5006228;28;20059;-74
2021/11/16 12:54:46;;;;;;;61.83;24.65;;;4.50;99.90;;;;;;5025864;28;20792;-75
2021/11/16 12:57:22;;;;;;;48.47;21.55;;;4.50;99.90;;;;;;5033518;28;20155;-74
2021/11/16 12:59:52;;;;;;;51.17;22.58;;;4.40;99.90;;;;;;4997274;28;20135;-74
2021/11/16 13:02:39;;;;;;;65.45;24.58;;;4.40;99.90;;;;;;5026455;28;20041;-74
2021/11/16 13:05:09;;;;;;;66.28;25.67;;;4.40;99.90;;;;;;5007880;28;20034;-73